Terminal Aerodrome Forecast
Issued by NWS

Home | Current Version | Previous Version | Graphics & Text | Print | Product List | Glossary On
Versions: 1 2 3 4 5 6 7 8 9 10 11 12 13 14
321
FTUS43 KBIS 172322
TAFJMS
TAF
KJMS 172322Z 1800/1824 22010KT P6SM SKC
     FM180500 21010G19KT P6SM SKC WS020/23040KT
     FM181000 23010KT P6SM FEW140 FEW250 WS020/29045KT
     FM181100 27010KT P6SM FEW140 FEW250 WS020/30040KT
     FM181400 29017G26KT P6SM FEW250
     FM181800 29024G35KT P6SM SCT250=

USA.gov is the U.S. government's official web portal to all federal, state and local government web resources and services.